sensor_id;sensor_type;location;lat;lon;timestamp;P1;durP1;ratioP1;P2;durP2;ratioP2
57832;SDS011;43667;53.036;6.740;2023-03-01T00:01:28;44.42;;;24.95;;
57832;SDS011;43667;53.036;6.740;2023-03-01T00:03:55;43.72;;;27.08;;
57832;SDS011;43667;53.036;6.740;2023-03-01T00:06:22;43.53;;;26.33;;
57832;SDS011;43667;53.036;6.740;2023-03-01T00:08:49;43.33;;;26.80;;
57832;SDS011;43667;53.036;6.740;2023-03-01T00:11:25;48.00;;;28.30;;
57832;SDS011;43667;53.036;6.740;2023-03-01T00:13:54;48.22;;;27.63;;
57832;SDS011;43667;53.036;6.740;2023-03-01T00:16:22;46.97;;;26.92;;
57832;SDS011;43667;53.036;6.740;2023-03-01T00:21:20;49.72;;;27.15;;
57832;SDS011;43667;53.036;6.740;2023-03-01T00:23:47;47.03;;;26.80;;
57832;SDS011;43667;53.036;6.740;2023-03-01T00:26:14;49.75;;;28.15;;
57832;SDS011;43667;53.036;6.740;2023-03-01T00:28:41;45.00;;;27.67;;
57832;SDS011;43667;53.036;6.740;2023-03-01T00:31:11;44.30;;;27.85;;
57832;SDS011;43667;53.036;6.740;2023-03-01T00:33:41;47.13;;;28.58;;
57832;SDS011;43667;53.036;6.740;2023-03-01T00:36:07;47.17;;;27.52;;
57832;SDS011;43667;53.036;6.740;2023-03-01T00:38:40;42.85;;;26.48;;
57832;SDS011;43667;53.036;6.740;2023-03-01T00:41:08;45.60;;;27.40;;
57832;SDS011;43667;53.036;6.740;2023-03-01T00:43:35;40.72;;;26.35;;
57832;SDS011;43667;53.036;6.740;2023-03-01T00:46:02;43.97;;;27.85;;
57832;SDS011;43667;53.036;6.740;2023-03-01T00:48:29;47.33;;;27.60;;
57832;SDS011;43667;53.036;6.740;2023-03-01T00:50:55;45.35;;;27.63;;
57832;SDS011;43667;53.036;6.740;2023-03-01T00:53:20;45.55;;;27.17;;
57832;SDS011;43667;53.036;6.740;2023-03-01T00:55:46;44.88;;;25.95;;
57832;SDS011;43667;53.036;6.740;2023-03-01T00:58:11;45.63;;;27.15;;
57832;SDS011;43667;53.036;6.740;2023-03-01T01:00:37;49.85;;;28.00;;
57832;SDS011;43667;53.036;6.740;2023-03-01T01:03:03;43.00;;;27.27;;
57832;SDS011;43667;53.036;6.740;2023-03-01T01:05:28;49.00;;;28.67;;
57832;SDS011;43667;53.036;6.740;2023-03-01T01:07:54;47.38;;;29.05;;
57832;SDS011;43667;53.036;6.740;2023-03-01T01:10:19;45.58;;;27.85;;
57832;SDS011;43667;53.036;6.740;2023-03-01T01:12:45;46.15;;;27.33;;
57832;SDS011;43667;53.036;6.740;2023-03-01T01:15:11;46.85;;;28.05;;
57832;SDS011;43667;53.036;6.740;2023-03-01T01:17:39;42.00;;;26.58;;
57832;SDS011;43667;53.036;6.740;2023-03-01T01:20:05;42.67;;;27.17;;
57832;SDS011;43667;53.036;6.740;2023-03-01T01:22:32;38.30;;;26.73;;
57832;SDS011;43667;53.036;6.740;2023-03-01T01:24:57;41.53;;;27.10;;
57832;SDS011;43667;53.036;6.740;2023-03-01T01:27:23;43.80;;;28.50;;
57832;SDS011;43667;53.036;6.740;2023-03-01T01:29:49;43.42;;;28.92;;
57832;SDS011;43667;53.036;6.740;2023-03-01T01:32:14;44.22;;;27.45;;
57832;SDS011;43667;53.036;6.740;2023-03-01T01:34:40;46.53;;;27.85;;
57832;SDS011;43667;53.036;6.740;2023-03-01T01:37:05;46.05;;;27.55;;
57832;SDS011;43667;53.036;6.740;2023-03-01T01:39:33;48.03;;;28.40;;
57832;SDS011;43667;53.036;6.740;2023-03-01T01:42:00;44.63;;;28.40;;
57832;SDS011;43667;53.036;6.740;2023-03-01T01:44:26;46.00;;;28.05;;
57832;SDS011;43667;53.036;6.740;2023-03-01T01:46:55;46.35;;;28.00;;
57832;SDS011;43667;53.036;6.740;2023-03-01T01:52:16;37.35;;;25.75;;
57832;SDS011;43667;53.036;6.740;2023-03-01T01:55:00;48.08;;;27.92;;
57832;SDS011;43667;53.036;6.740;2023-03-01T01:57:46;42.83;;;25.80;;
57832;SDS011;43667;53.036;6.740;2023-03-01T02:00:19;41.75;;;26.13;;
57832;SDS011;43667;53.036;6.740;2023-03-01T02:02:48;38.30;;;26.52;;
57832;SDS011;43667;53.036;6.740;2023-03-01T02:05:52;42.20;;;25.77;;
57832;SDS011;43667;53.036;6.740;2023-03-01T02:08:29;40.42;;;26.45;;
57832;SDS011;43667;53.036;6.740;2023-03-01T02:10:57;44.10;;;27.33;;
57832;SDS011;43667;53.036;6.740;2023-03-01T02:13:24;39.63;;;26.45;;
57832;SDS011;43667;53.036;6.740;2023-03-01T02:15:51;38.03;;;25.08;;
57832;SDS011;43667;53.036;6.740;2023-03-01T02:18:17;37.00;;;25.92;;
57832;SDS011;43667;53.036;6.740;2023-03-01T02:21:04;43.45;;;25.45;;
57832;SDS011;43667;53.036;6.740;2023-03-01T02:23:51;39.22;;;25.10;;
57832;SDS011;43667;53.036;6.740;2023-03-01T02:26:19;34.55;;;24.08;;
57832;SDS011;43667;53.036;6.740;2023-03-01T02:28:50;35.87;;;23.90;;
57832;SDS011;43667;53.036;6.740;2023-03-01T02:31:17;33.55;;;22.67;;
57832;SDS011;43667;53.036;6.740;2023-03-01T02:34:03;40.63;;;25.98;;
57832;SDS011;43667;53.036;6.740;2023-03-01T02:36:37;36.30;;;24.45;;
57832;SDS011;43667;53.036;6.740;2023-03-01T02:39:06;40.05;;;25.95;;
57832;SDS011;43667;53.036;6.740;2023-03-01T02:41:42;38.80;;;25.30;;
57832;SDS011;43667;53.036;6.740;2023-03-01T02:44:21;41.72;;;24.83;;
57832;SDS011;43667;53.036;6.740;2023-03-01T02:46:50;40.90;;;25.85;;
57832;SDS011;43667;53.036;6.740;2023-03-01T02:49:19;37.05;;;24.42;;
57832;SDS011;43667;53.036;6.740;2023-03-01T02:54:59;38.78;;;25.15;;
57832;SDS011;43667;53.036;6.740;2023-03-01T02:57:32;35.33;;;23.73;;
57832;SDS011;43667;53.036;6.740;2023-03-01T03:00:00;42.08;;;26.17;;
57832;SDS011;43667;53.036;6.740;2023-03-01T03:02:32;44.63;;;26.63;;
57832;SDS011;43667;53.036;6.740;2023-03-01T03:05:03;40.25;;;25.77;;
57832;SDS011;43667;53.036;6.740;2023-03-01T03:07:31;44.65;;;26.75;;
57832;SDS011;43667;53.036;6.740;2023-03-01T03:09:59;47.03;;;28.70;;
57832;SDS011;43667;53.036;6.740;2023-03-01T03:12:25;46.20;;;28.95;;
57832;SDS011;43667;53.036;6.740;2023-03-01T03:14:50;40.33;;;26.50;;
57832;SDS011;43667;53.036;6.740;2023-03-01T03:17:16;43.75;;;27.55;;
57832;SDS011;43667;53.036;6.740;2023-03-01T03:19:41;39.97;;;25.77;;
57832;SDS011;43667;53.036;6.740;2023-03-01T03:22:10;39.20;;;24.92;;
57832;SDS011;43667;53.036;6.740;2023-03-01T03:24:36;41.70;;;26.38;;
57832;SDS011;43667;53.036;6.740;2023-03-01T03:27:06;39.05;;;26.27;;
57832;SDS011;43667;53.036;6.740;2023-03-01T03:29:32;35.05;;;24.48;;
57832;SDS011;43667;53.036;6.740;2023-03-01T03:31:58;32.13;;;22.55;;
57832;SDS011;43667;53.036;6.740;2023-03-01T03:34:23;27.13;;;21.02;;
57832;SDS011;43667;53.036;6.740;2023-03-01T03:36:53;28.17;;;20.80;;
57832;SDS011;43667;53.036;6.740;2023-03-01T03:39:24;22.83;;;18.88;;
57832;SDS011;43667;53.036;6.740;2023-03-01T03:41:54;25.88;;;20.35;;
57832;SDS011;43667;53.036;6.740;2023-03-01T03:44:20;23.25;;;18.70;;
57832;SDS011;43667;53.036;6.740;2023-03-01T03:46:46;25.10;;;20.10;;
57832;SDS011;43667;53.036;6.740;2023-03-01T03:49:12;21.75;;;18.17;;
57832;SDS011;43667;53.036;6.740;2023-03-01T03:51:37;25.13;;;18.85;;
57832;SDS011;43667;53.036;6.740;2023-03-01T03:54:03;27.95;;;21.05;;
57832;SDS011;43667;53.036;6.740;2023-03-01T03:56:29;28.02;;;20.15;;
57832;SDS011;43667;53.036;6.740;2023-03-01T03:58:54;27.65;;;20.83;;
57832;SDS011;43667;53.036;6.740;2023-03-01T04:01:20;27.08;;;19.50;;
57832;SDS011;43667;53.036;6.740;2023-03-01T04:03:45;27.23;;;20.23;;
57832;SDS011;43667;53.036;6.740;2023-03-01T04:06:14;27.40;;;20.25;;
57832;SDS011;43667;53.036;6.740;2023-03-01T04:08:40;27.90;;;21.50;;
57832;SDS011;43667;53.036;6.740;2023-03-01T04:11:06;30.13;;;22.48;;
57832;SDS011;43667;53.036;6.740;2023-03-01T04:13:50;32.78;;;22.92;;
57832;SDS011;43667;53.036;6.740;2023-03-01T04:16:17;31.42;;;23.30;;
57832;SDS011;43667;53.036;6.740;2023-03-01T04:18:44;31.88;;;22.10;;
57832;SDS011;43667;53.036;6.740;2023-03-01T04:21:10;33.88;;;23.38;;
57832;SDS011;43667;53.036;6.740;2023-03-01T04:23:36;33.38;;;22.75;;
57832;SDS011;43667;53.036;6.740;2023-03-01T04:26:03;34.03;;;22.90;;
57832;SDS011;43667;53.036;6.740;2023-03-01T04:28:39;33.10;;;23.27;;
57832;SDS011;43667;53.036;6.740;2023-03-01T04:31:06;37.70;;;23.42;;
57832;SDS011;43667;53.036;6.740;2023-03-01T04:38:34;33.80;;;22.42;;
57832;SDS011;43667;53.036;6.740;2023-03-01T04:41:05;33.40;;;22.92;;
57832;SDS011;43667;53.036;6.740;2023-03-01T04:43:32;29.87;;;22.07;;
57832;SDS011;43667;53.036;6.740;2023-03-01T04:46:06;30.52;;;22.80;;
57832;SDS011;43667;53.036;6.740;2023-03-01T04:48:34;28.73;;;21.98;;
57832;SDS011;43667;53.036;6.740;2023-03-01T04:51:01;30.73;;;22.70;;
57832;SDS011;43667;53.036;6.740;2023-03-01T04:53:27;35.08;;;23.42;;
57832;SDS011;43667;53.036;6.740;2023-03-01T04:55:54;31.33;;;22.75;;
57832;SDS011;43667;53.036;6.740;2023-03-01T04:58:21;33.40;;;23.95;;
57832;SDS011;43667;53.036;6.740;2023-03-01T05:00:50;35.85;;;25.05;;
57832;SDS011;43667;53.036;6.740;2023-03-01T05:03:16;35.28;;;24.17;;
57832;SDS011;43667;53.036;6.740;2023-03-01T05:05:43;37.22;;;24.20;;
57832;SDS011;43667;53.036;6.740;2023-03-01T05:08:10;37.90;;;24.63;;
57832;SDS011;43667;53.036;6.740;2023-03-01T05:10:42;41.47;;;26.50;;
57832;SDS011;43667;53.036;6.740;2023-03-01T05:13:13;46.05;;;28.55;;
57832;SDS011;43667;53.036;6.740;2023-03-01T05:15:45;43.92;;;27.35;;
57832;SDS011;43667;53.036;6.740;2023-03-01T05:18:12;54.23;;;30.70;;
57832;SDS011;43667;53.036;6.740;2023-03-01T05:20:38;52.13;;;31.98;;
57832;SDS011;43667;53.036;6.740;2023-03-01T05:23:04;59.75;;;34.20;;
57832;SDS011;43667;53.036;6.740;2023-03-01T05:25:30;61.72;;;34.78;;
57832;SDS011;43667;53.036;6.740;2023-03-01T05:27:58;57.20;;;33.75;;
57832;SDS011;43667;53.036;6.740;2023-03-01T05:30:29;51.22;;;31.88;;
57832;SDS011;43667;53.036;6.740;2023-03-01T05:32:55;57.00;;;32.28;;
57832;SDS011;43667;53.036;6.740;2023-03-01T05:35:21;54.90;;;33.45;;
57832;SDS011;43667;53.036;6.740;2023-03-01T05:37:48;58.70;;;33.92;;
57832;SDS011;43667;53.036;6.740;2023-03-01T05:40:15;49.72;;;31.98;;
57832;SDS011;43667;53.036;6.740;2023-03-01T05:42:51;51.92;;;30.92;;
57832;SDS011;43667;53.036;6.740;2023-03-01T05:45:19;51.28;;;29.17;;
57832;SDS011;43667;53.036;6.740;2023-03-01T05:47:45;47.95;;;30.90;;
57832;SDS011;43667;53.036;6.740;2023-03-01T05:52:49;49.95;;;31.23;;
57832;SDS011;43667;53.036;6.740;2023-03-01T05:55:17;55.85;;;31.80;;
57832;SDS011;43667;53.036;6.740;2023-03-01T05:57:44;54.92;;;32.97;;
57832;SDS011;43667;53.036;6.740;2023-03-01T06:00:10;61.28;;;34.80;;
57832;SDS011;43667;53.036;6.740;2023-03-01T06:02:38;58.72;;;34.50;;
57832;SDS011;43667;53.036;6.740;2023-03-01T06:05:07;50.88;;;30.27;;
57832;SDS011;43667;53.036;6.740;2023-03-01T06:07:34;54.38;;;31.20;;
57832;SDS011;43667;53.036;6.740;2023-03-01T06:10:00;52.75;;;31.20;;
57832;SDS011;43667;53.036;6.740;2023-03-01T06:12:27;51.15;;;31.05;;
57832;SDS011;43667;53.036;6.740;2023-03-01T06:14:55;46.13;;;29.58;;
57832;SDS011;43667;53.036;6.740;2023-03-01T06:17:21;50.38;;;31.02;;
57832;SDS011;43667;53.036;6.740;2023-03-01T06:19:46;49.45;;;30.95;;
57832;SDS011;43667;53.036;6.740;2023-03-01T06:22:12;49.33;;;29.67;;
57832;SDS011;43667;53.036;6.740;2023-03-01T06:24:38;47.80;;;29.92;;
57832;SDS011;43667;53.036;6.740;2023-03-01T06:27:03;43.63;;;29.33;;
57832;SDS011;43667;53.036;6.740;2023-03-01T06:29:29;42.00;;;26.83;;
57832;SDS011;43667;53.036;6.740;2023-03-01T06:31:55;43.15;;;28.20;;
57832;SDS011;43667;53.036;6.740;2023-03-01T06:34:20;43.17;;;26.88;;
57832;SDS011;43667;53.036;6.740;2023-03-01T06:36:46;42.20;;;26.95;;
57832;SDS011;43667;53.036;6.740;2023-03-01T06:39:12;44.97;;;27.77;;
57832;SDS011;43667;53.036;6.740;2023-03-01T06:41:37;37.13;;;25.38;;
57832;SDS011;43667;53.036;6.740;2023-03-01T06:44:03;40.22;;;26.33;;
57832;SDS011;43667;53.036;6.740;2023-03-01T06:46:29;39.33;;;25.80;;
57832;SDS011;43667;53.036;6.740;2023-03-01T06:48:55;38.57;;;24.57;;
57832;SDS011;43667;53.036;6.740;2023-03-01T06:51:21;39.28;;;24.42;;
57832;SDS011;43667;53.036;6.740;2023-03-01T06:53:46;36.50;;;24.50;;
57832;SDS011;43667;53.036;6.740;2023-03-01T06:56:12;39.50;;;26.55;;
57832;SDS011;43667;53.036;6.740;2023-03-01T06:58:38;32.47;;;23.30;;
57832;SDS011;43667;53.036;6.740;2023-03-01T07:01:07;36.33;;;24.00;;
57832;SDS011;43667;53.036;6.740;2023-03-01T07:03:33;34.67;;;24.50;;
57832;SDS011;43667;53.036;6.740;2023-03-01T07:05:59;34.90;;;23.10;;
57832;SDS011;43667;53.036;6.740;2023-03-01T07:08:25;33.63;;;22.27;;
57832;SDS011;43667;53.036;6.740;2023-03-01T07:10:58;31.60;;;22.70;;
57832;SDS011;43667;53.036;6.740;2023-03-01T07:13:24;38.55;;;23.85;;
57832;SDS011;43667;53.036;6.740;2023-03-01T07:15:50;37.00;;;24.70;;
57832;SDS011;43667;53.036;6.740;2023-03-01T07:18:16;32.03;;;22.83;;
57832;SDS011;43667;53.036;6.740;2023-03-01T07:20:42;38.63;;;25.77;;
57832;SDS011;43667;53.036;6.740;2023-03-01T07:23:07;34.53;;;23.60;;
57832;SDS011;43667;53.036;6.740;2023-03-01T07:25:33;32.97;;;22.88;;
57832;SDS011;43667;53.036;6.740;2023-03-01T07:27:59;31.95;;;23.35;;
57832;SDS011;43667;53.036;6.740;2023-03-01T07:30:24;37.30;;;23.35;;
57832;SDS011;43667;53.036;6.740;2023-03-01T07:32:52;33.33;;;24.27;;
57832;SDS011;43667;53.036;6.740;2023-03-01T07:35:18;34.92;;;22.67;;
57832;SDS011;43667;53.036;6.740;2023-03-01T07:37:43;36.67;;;24.42;;
57832;SDS011;43667;53.036;6.740;2023-03-01T07:40:09;38.03;;;24.05;;
57832;SDS011;43667;53.036;6.740;2023-03-01T07:42:35;35.33;;;24.38;;
57832;SDS011;43667;53.036;6.740;2023-03-01T07:45:02;33.55;;;23.83;;
57832;SDS011;43667;53.036;6.740;2023-03-01T07:47:28;38.20;;;24.55;;
57832;SDS011;43667;53.036;6.740;2023-03-01T07:49:54;36.05;;;25.60;;
57832;SDS011;43667;53.036;6.740;2023-03-01T07:52:20;38.70;;;25.50;;
57832;SDS011;43667;53.036;6.740;2023-03-01T07:54:45;37.13;;;26.55;;
57832;SDS011;43667;53.036;6.740;2023-03-01T07:57:11;34.20;;;25.58;;
57832;SDS011;43667;53.036;6.740;2023-03-01T07:59:37;37.90;;;26.77;;
57832;SDS011;43667;53.036;6.740;2023-03-01T08:02:02;37.53;;;28.58;;
57832;SDS011;43667;53.036;6.740;2023-03-01T08:04:28;36.85;;;26.88;;
57832;SDS011;43667;53.036;6.740;2023-03-01T08:06:54;35.85;;;25.65;;
57832;SDS011;43667;53.036;6.740;2023-03-01T08:09:20;40.53;;;27.55;;
57832;SDS011;43667;53.036;6.740;2023-03-01T08:11:46;35.80;;;25.33;;
57832;SDS011;43667;53.036;6.740;2023-03-01T08:14:12;37.70;;;26.17;;
57832;SDS011;43667;53.036;6.740;2023-03-01T08:16:37;30.85;;;24.13;;
57832;SDS011;43667;53.036;6.740;2023-03-01T08:19:07;33.83;;;25.30;;
57832;SDS011;43667;53.036;6.740;2023-03-01T08:21:34;34.33;;;25.20;;
57832;SDS011;43667;53.036;6.740;2023-03-01T08:24:03;41.47;;;29.67;;
57832;SDS011;43667;53.036;6.740;2023-03-01T08:26:31;134.95;;;34.55;;
57832;SDS011;43667;53.036;6.740;2023-03-01T08:28:58;103.47;;;35.42;;
57832;SDS011;43667;53.036;6.740;2023-03-01T08:33:53;54.25;;;34.53;;
57832;SDS011;43667;53.036;6.740;2023-03-01T08:36:25;62.85;;;33.80;;
57832;SDS011;43667;53.036;6.740;2023-03-01T08:38:55;162.93;;;38.08;;
57832;SDS011;43667;53.036;6.740;2023-03-01T08:41:21;356.90;;;48.33;;
57832;SDS011;43667;53.036;6.740;2023-03-01T08:43:47;697.00;;;67.70;;
57832;SDS011;43667;53.036;6.740;2023-03-01T08:46:12;93.68;;;35.00;;
57832;SDS011;43667;53.036;6.740;2023-03-01T08:48:38;138.45;;;36.13;;
57832;SDS011;43667;53.036;6.740;2023-03-01T08:53:38;51.88;;;32.60;;
57832;SDS011;43667;53.036;6.740;2023-03-01T08:56:05;59.30;;;33.05;;
57832;SDS011;43667;53.036;6.740;2023-03-01T08:58:31;48.00;;;30.80;;
57832;SDS011;43667;53.036;6.740;2023-03-01T09:00:57;51.10;;;32.53;;
57832;SDS011;43667;53.036;6.740;2023-03-01T09:03:23;42.72;;;28.35;;
57832;SDS011;43667;53.036;6.740;2023-03-01T09:05:49;40.63;;;28.75;;
57832;SDS011;43667;53.036;6.740;2023-03-01T09:08:16;45.63;;;29.50;;
57832;SDS011;43667;53.036;6.740;2023-03-01T09:10:42;39.78;;;27.88;;
57832;SDS011;43667;53.036;6.740;2023-03-01T09:13:08;42.38;;;29.73;;
57832;SDS011;43667;53.036;6.740;2023-03-01T09:15:33;51.38;;;31.10;;
57832;SDS011;43667;53.036;6.740;2023-03-01T09:18:01;39.90;;;27.88;;
57832;SDS011;43667;53.036;6.740;2023-03-01T09:20:26;57.67;;;28.27;;
57832;SDS011;43667;53.036;6.740;2023-03-01T09:22:52;58.83;;;25.00;;
57832;SDS011;43667;53.036;6.740;2023-03-01T09:25:17;47.30;;;26.27;;
57832;SDS011;43667;53.036;6.740;2023-03-01T09:27:43;63.90;;;28.08;;
57832;SDS011;43667;53.036;6.740;2023-03-01T09:30:09;42.00;;;29.58;;
57832;SDS011;43667;53.036;6.740;2023-03-01T09:32:35;43.70;;;28.08;;
57832;SDS011;43667;53.036;6.740;2023-03-01T09:35:01;41.42;;;28.63;;
57832;SDS011;43667;53.036;6.740;2023-03-01T09:37:30;39.45;;;30.05;;
57832;SDS011;43667;53.036;6.740;2023-03-01T09:39:57;44.22;;;30.88;;
57832;SDS011;43667;53.036;6.740;2023-03-01T09:42:23;39.42;;;29.25;;
57832;SDS011;43667;53.036;6.740;2023-03-01T09:44:56;46.25;;;29.50;;
57832;SDS011;43667;53.036;6.740;2023-03-01T09:47:29;103.43;;;28.65;;
57832;SDS011;43667;53.036;6.740;2023-03-01T09:50:14;56.55;;;27.95;;
57832;SDS011;43667;53.036;6.740;2023-03-01T10:00:56;49.00;;;26.67;;
57832;SDS011;43667;53.036;6.740;2023-03-01T10:03:34;58.53;;;27.83;;
57832;SDS011;43667;53.036;6.740;2023-03-01T10:06:04;51.40;;;25.95;;
57832;SDS011;43667;53.036;6.740;2023-03-01T10:08:55;43.08;;;28.27;;
57832;SDS011;43667;53.036;6.740;2023-03-01T10:11:35;36.08;;;25.90;;
57832;SDS011;43667;53.036;6.740;2023-03-01T10:14:04;38.70;;;29.15;;
57832;SDS011;43667;53.036;6.740;2023-03-01T10:16:52;39.10;;;27.50;;
57832;SDS011;43667;53.036;6.740;2023-03-01T10:22:21;40.35;;;30.42;;
57832;SDS011;43667;53.036;6.740;2023-03-01T10:24:53;37.10;;;28.88;;
57832;SDS011;43667;53.036;6.740;2023-03-01T10:27:36;39.80;;;29.15;;
57832;SDS011;43667;53.036;6.740;2023-03-01T10:32:47;33.55;;;27.17;;
57832;SDS011;43667;53.036;6.740;2023-03-01T10:35:16;36.42;;;28.20;;
57832;SDS011;43667;53.036;6.740;2023-03-01T10:40:56;34.58;;;25.95;;
57832;SDS011;43667;53.036;6.740;2023-03-01T10:46:22;37.15;;;27.92;;
57832;SDS011;43667;53.036;6.740;2023-03-01T10:49:00;37.70;;;26.58;;
57832;SDS011;43667;53.036;6.740;2023-03-01T10:51:47;36.83;;;27.90;;
57832;SDS011;43667;53.036;6.740;2023-03-01T10:54:36;45.25;;;30.75;;
57832;SDS011;43667;53.036;6.740;2023-03-01T10:57:02;35.35;;;25.92;;
57832;SDS011;43667;53.036;6.740;2023-03-01T11:02:04;35.42;;;27.38;;
57832;SDS011;43667;53.036;6.740;2023-03-01T11:07:54;33.78;;;26.13;;
57832;SDS011;43667;53.036;6.740;2023-03-01T11:10:34;32.70;;;23.27;;
57832;SDS011;43667;53.036;6.740;2023-03-01T11:15:40;27.77;;;22.88;;
57832;SDS011;43667;53.036;6.740;2023-03-01T11:18:18;28.92;;;22.42;;
57832;SDS011;43667;53.036;6.740;2023-03-01T11:20:45;30.63;;;21.35;;
57832;SDS011;43667;53.036;6.740;2023-03-01T11:23:13;27.48;;;21.20;;
57832;SDS011;43667;53.036;6.740;2023-03-01T11:25:42;29.15;;;22.23;;
57832;SDS011;43667;53.036;6.740;2023-03-01T11:28:14;29.63;;;23.55;;
57832;SDS011;43667;53.036;6.740;2023-03-01T11:33:35;28.05;;;21.02;;
57832;SDS011;43667;53.036;6.740;2023-03-01T11:38:40;25.00;;;19.20;;
57832;SDS011;43667;53.036;6.740;2023-03-01T11:51:53;30.40;;;19.65;;
57832;SDS011;43667;53.036;6.740;2023-03-01T12:03:21;20.27;;;16.88;;
57832;SDS011;43667;53.036;6.740;2023-03-01T12:11:41;17.98;;;15.38;;
57832;SDS011;43667;53.036;6.740;2023-03-01T12:23:14;17.30;;;14.23;;
57832;SDS011;43667;53.036;6.740;2023-03-01T12:26:06;21.00;;;15.52;;
57832;SDS011;43667;53.036;6.740;2023-03-01T12:29:10;17.38;;;13.43;;
57832;SDS011;43667;53.036;6.740;2023-03-01T12:31:48;14.85;;;12.68;;
57832;SDS011;43667;53.036;6.740;2023-03-01T12:37:08;17.52;;;15.13;;
57832;SDS011;43667;53.036;6.740;2023-03-01T12:42:39;21.45;;;15.50;;
57832;SDS011;43667;53.036;6.740;2023-03-01T12:48:08;18.35;;;14.10;;
57832;SDS011;43667;53.036;6.740;2023-03-01T12:50:39;16.95;;;14.38;;
57832;SDS011;43667;53.036;6.740;2023-03-01T12:53:10;18.40;;;14.95;;
57832;SDS011;43667;53.036;6.740;2023-03-01T12:55:47;18.80;;;15.65;;
57832;SDS011;43667;53.036;6.740;2023-03-01T13:00:57;19.95;;;16.10;;
57832;SDS011;43667;53.036;6.740;2023-03-01T13:11:22;18.92;;;15.77;;
57832;SDS011;43667;53.036;6.740;2023-03-01T13:13:49;19.08;;;15.70;;
57832;SDS011;43667;53.036;6.740;2023-03-01T13:19:17;17.52;;;15.50;;
57832;SDS011;43667;53.036;6.740;2023-03-01T13:21:48;20.65;;;15.68;;
57832;SDS011;43667;53.036;6.740;2023-03-01T13:24:29;19.25;;;15.10;;
57832;SDS011;43667;53.036;6.740;2023-03-01T13:29:53;20.48;;;16.50;;
57832;SDS011;43667;53.036;6.740;2023-03-01T13:32:37;19.58;;;16.13;;
57832;SDS011;43667;53.036;6.740;2023-03-01T13:37:40;18.85;;;15.18;;
57832;SDS011;43667;53.036;6.740;2023-03-01T13:42:44;17.05;;;15.05;;
57832;SDS011;43667;53.036;6.740;2023-03-01T13:45:21;19.25;;;15.95;;
57832;SDS011;43667;53.036;6.740;2023-03-01T13:48:01;17.65;;;15.50;;
57832;SDS011;43667;53.036;6.740;2023-03-01T13:50:33;16.50;;;14.65;;
57832;SDS011;43667;53.036;6.740;2023-03-01T13:53:10;19.30;;;15.18;;
57832;SDS011;43667;53.036;6.740;2023-03-01T13:55:43;16.00;;;13.70;;
57832;SDS011;43667;53.036;6.740;2023-03-01T13:58:15;16.75;;;14.02;;
57832;SDS011;43667;53.036;6.740;2023-03-01T14:03:26;14.88;;;13.23;;
57832;SDS011;43667;53.036;6.740;2023-03-01T14:08:32;16.10;;;12.65;;
57832;SDS011;43667;53.036;6.740;2023-03-01T14:19:30;13.23;;;11.48;;
57832;SDS011;43667;53.036;6.740;2023-03-01T14:24:46;12.38;;;11.07;;
57832;SDS011;43667;53.036;6.740;2023-03-01T14:27:28;11.68;;;10.38;;
57832;SDS011;43667;53.036;6.740;2023-03-01T14:30:22;15.18;;;11.48;;
57832;SDS011;43667;53.036;6.740;2023-03-01T14:32:52;17.13;;;12.23;;
57832;SDS011;43667;53.036;6.740;2023-03-01T14:35:33;15.38;;;12.75;;
57832;SDS011;43667;53.036;6.740;2023-03-01T14:38:01;16.17;;;13.55;;
57832;SDS011;43667;53.036;6.740;2023-03-01T14:40:28;15.95;;;13.20;;
57832;SDS011;43667;53.036;6.740;2023-03-01T14:42:55;16.00;;;12.65;;
57832;SDS011;43667;53.036;6.740;2023-03-01T14:45:24;17.02;;;13.15;;
57832;SDS011;43667;53.036;6.740;2023-03-01T14:47:51;14.48;;;12.77;;
57832;SDS011;43667;53.036;6.740;2023-03-01T14:50:28;16.63;;;13.10;;
57832;SDS011;43667;53.036;6.740;2023-03-01T14:53:03;18.35;;;14.43;;
57832;SDS011;43667;53.036;6.740;2023-03-01T14:55:38;16.77;;;13.77;;
57832;SDS011;43667;53.036;6.740;2023-03-01T14:58:13;16.10;;;13.52;;
57832;SDS011;43667;53.036;6.740;2023-03-01T15:00:45;16.02;;;13.63;;
57832;SDS011;43667;53.036;6.740;2023-03-01T15:03:27;16.70;;;14.35;;
57832;SDS011;43667;53.036;6.740;2023-03-01T15:06:09;16.67;;;14.13;;
57832;SDS011;43667;53.036;6.740;2023-03-01T15:08:35;16.23;;;14.52;;
57832;SDS011;43667;53.036;6.740;2023-03-01T15:11:04;17.42;;;14.95;;
57832;SDS011;43667;53.036;6.740;2023-03-01T15:13:42;17.85;;;14.85;;
57832;SDS011;43667;53.036;6.740;2023-03-01T15:18:51;16.98;;;15.18;;
57832;SDS011;43667;53.036;6.740;2023-03-01T15:21:25;16.85;;;15.00;;
57832;SDS011;43667;53.036;6.740;2023-03-01T15:23:55;18.30;;;16.25;;
57832;SDS011;43667;53.036;6.740;2023-03-01T15:26:41;19.30;;;16.52;;
57832;SDS011;43667;53.036;6.740;2023-03-01T15:29:14;17.55;;;15.32;;
57832;SDS011;43667;53.036;6.740;2023-03-01T15:31:42;19.88;;;15.40;;
57832;SDS011;43667;53.036;6.740;2023-03-01T15:36:54;18.10;;;15.30;;
57832;SDS011;43667;53.036;6.740;2023-03-01T15:42:02;16.65;;;14.85;;
57832;SDS011;43667;53.036;6.740;2023-03-01T15:44:30;16.58;;;14.13;;
57832;SDS011;43667;53.036;6.740;2023-03-01T15:46:57;16.75;;;15.00;;
57832;SDS011;43667;53.036;6.740;2023-03-01T15:49:26;18.10;;;15.25;;
57832;SDS011;43667;53.036;6.740;2023-03-01T15:51:55;19.05;;;15.10;;
57832;SDS011;43667;53.036;6.740;2023-03-01T15:54:22;16.73;;;15.02;;
57832;SDS011;43667;53.036;6.740;2023-03-01T15:56:50;18.88;;;16.05;;
57832;SDS011;43667;53.036;6.740;2023-03-01T15:59:16;19.95;;;16.90;;
57832;SDS011;43667;53.036;6.740;2023-03-01T16:01:42;17.85;;;15.65;;
57832;SDS011;43667;53.036;6.740;2023-03-01T16:04:12;17.25;;;14.98;;
57832;SDS011;43667;53.036;6.740;2023-03-01T16:06:45;17.58;;;15.68;;
57832;SDS011;43667;53.036;6.740;2023-03-01T16:09:23;20.70;;;16.05;;
57832;SDS011;43667;53.036;6.740;2023-03-01T16:11:51;19.58;;;16.75;;
57832;SDS011;43667;53.036;6.740;2023-03-01T16:14:18;20.00;;;17.17;;
57832;SDS011;43667;53.036;6.740;2023-03-01T16:16:44;20.30;;;16.73;;
57832;SDS011;43667;53.036;6.740;2023-03-01T16:19:10;18.55;;;16.17;;
57832;SDS011;43667;53.036;6.740;2023-03-01T16:21:36;21.05;;;16.88;;
57832;SDS011;43667;53.036;6.740;2023-03-01T16:24:02;20.58;;;16.42;;
57832;SDS011;43667;53.036;6.740;2023-03-01T16:26:28;21.40;;;17.73;;
57832;SDS011;43667;53.036;6.740;2023-03-01T16:28:55;20.45;;;16.48;;
57832;SDS011;43667;53.036;6.740;2023-03-01T16:31:22;18.35;;;16.13;;
57832;SDS011;43667;53.036;6.740;2023-03-01T16:33:48;18.95;;;16.00;;
57832;SDS011;43667;53.036;6.740;2023-03-01T16:36:16;18.85;;;16.48;;
57832;SDS011;43667;53.036;6.740;2023-03-01T16:38:43;20.85;;;16.88;;
57832;SDS011;43667;53.036;6.740;2023-03-01T16:41:13;20.60;;;17.20;;
57832;SDS011;43667;53.036;6.740;2023-03-01T16:43:40;20.52;;;17.45;;
57832;SDS011;43667;53.036;6.740;2023-03-01T16:46:09;20.85;;;17.50;;
57832;SDS011;43667;53.036;6.740;2023-03-01T16:48:36;22.80;;;18.55;;
57832;SDS011;43667;53.036;6.740;2023-03-01T16:51:02;23.27;;;18.67;;
57832;SDS011;43667;53.036;6.740;2023-03-01T16:53:28;22.17;;;18.90;;
57832;SDS011;43667;53.036;6.740;2023-03-01T16:55:54;23.00;;;17.83;;
57832;SDS011;43667;53.036;6.740;2023-03-01T16:58:21;24.90;;;18.83;;